Portada
METAR-TAF:

METAR-TAF

Aeropuertos :

Aeropuerto Internacional de Jartum

Jartum, Sudán

latitud: 15-36N, longitud: 032-33E, altitud: 382 m

Observación

El informe se hizo hace 27 minutos, a las 03:30 UTC
Viento 1 kt del oeste-noroeste
Temperatura 29°C
Humedad 35%
Presión 1011 hPa
Visibilidad 10 km o más
sin nubes por debajo de 1500 m y sin presencia de cumulonimbus.

METAR: HSSS 220330Z 29001KT CAVOK 29/12 Q1011 NOSIG

Hora: 06:57 (03:57 UTC)

Pronóstico

El informe se hizo hace 4 horas y 57 minutos, a las 23:00 UTC
Pronóstico válido del 22 a las 00 UTC al 23 a las 06 UTC
Viento 8 kt del norte con ráfagas de 18 kt
Visibilidad 10 km o más
sin nubes por debajo de 1500 m y sin presencia de cumulonimbus.
Probabilidad 30% :
Temporalmente
del 22 a las 00 UTC al 22 a las 04 UTC
Visibilidad: 6000 m
Cielo nuboso a una altura de 14000 ft
chaparrones de lluvia

TAF: HSSS 212300Z 2200/2306 36008G18KT CAVOK PROB30 TEMPO 2200/2204 6000 SHRA BKN140

Observaciones y pronósticos meteorológicos de más de 4000 aeropuertos (mensajes METAR y TAF).

Los puntos amarillos y rojos representan las estaciones disponibles.

Ponga el ratón en el punto deseado para ver el nombre de la estación.

Haga clic para ver las observaciones y los pronósticos meteorológicos.

Para cambiar el mapa : haga clic en los botones verdes con una cruz de color negro para hacer un zoom, en el botón verde con un guión para alejar o en las flechas verdes para mapas adyacentes.


METAR-TAF: